createdAt,value
2018-03-01T00:02:08.212Z,16.00
2018-03-01T00:04:35.659Z,15.83
2018-03-01T00:07:03.090Z,15.13
2018-03-01T00:09:31.275Z,15.47
2018-03-01T00:11:58.712Z,15.20
2018-03-01T00:14:26.152Z,15.40
2018-03-01T00:16:53.606Z,16.60
2018-03-01T00:19:21.031Z,14.70
2018-03-01T00:21:48.472Z,14.27
2018-03-01T00:24:16.672Z,15.93
2018-03-01T00:26:44.111Z,15.63
2018-03-01T00:29:11.560Z,14.97
2018-03-01T00:31:39.011Z,16.00
2018-03-01T00:34:06.463Z,14.50
2018-03-01T00:36:33.892Z,15.37
2018-03-01T00:39:01.436Z,16.13
2018-03-01T00:41:28.856Z,15.80
2018-03-01T00:43:56.296Z,15.50
2018-03-01T00:46:23.747Z,13.87
2018-03-01T00:48:51.160Z,14.87
2018-03-01T00:51:18.598Z,14.67
2018-03-01T00:53:46.031Z,15.27
2018-03-01T00:56:13.501Z,16.07
2018-03-01T00:58:40.952Z,17.13
2018-03-01T01:01:08.368Z,15.53
2018-03-01T01:03:35.804Z,12.40
2018-03-01T01:06:03.235Z,11.90
2018-03-01T01:08:30.695Z,15.47
2018-03-01T01:10:58.124Z,14.50
2018-03-01T01:13:25.579Z,14.80
2018-03-01T01:15:53.008Z,14.90
2018-03-01T01:18:20.439Z,13.57
2018-03-01T01:20:47.904Z,15.47
2018-03-01T01:23:15.350Z,17.17
2018-03-01T01:25:42.764Z,16.20
2018-03-01T01:28:10.212Z,15.17
2018-03-01T01:30:37.653Z,15.03
2018-03-01T01:33:05.153Z,16.33
2018-03-01T01:35:32.575Z,15.87
2018-03-01T01:38:00.017Z,14.07
2018-03-01T01:40:27.458Z,16.27
2018-03-01T01:42:54.885Z,14.60
2018-03-01T01:45:22.315Z,15.27
2018-03-01T01:47:49.759Z,14.93
2018-03-01T01:50:17.212Z,15.60
2018-03-01T01:52:44.636Z,13.97
2018-03-01T01:55:12.082Z,15.07
2018-03-01T01:57:39.519Z,16.53
2018-03-01T02:00:06.960Z,14.30
2018-03-01T02:02:34.412Z,13.83
2018-03-01T02:05:01.848Z,15.43
2018-03-01T02:07:29.260Z,14.60
2018-03-01T02:09:57.463Z,15.63
2018-03-01T02:12:24.904Z,16.67
2018-03-01T02:14:52.343Z,13.40
2018-03-01T02:17:19.788Z,15.23
2018-03-01T02:19:47.224Z,11.33
2018-03-01T02:22:14.667Z,16.07
2018-03-01T02:24:42.105Z,15.80
2018-03-01T02:27:09.556Z,15.93
2018-03-01T02:29:37.006Z,13.50
2018-03-01T02:32:04.456Z,15.33
2018-03-01T02:34:31.882Z,16.10
2018-03-01T02:36:59.307Z,14.33
2018-03-01T02:39:26.771Z,14.53
2018-03-01T02:41:54.192Z,15.30
2018-03-01T02:44:21.625Z,15.17
2018-03-01T02:46:49.065Z,13.33
2018-03-01T02:49:16.543Z,14.07
2018-03-01T02:51:43.977Z,18.60
2018-03-01T02:54:11.418Z,14.87
2018-03-01T02:56:38.861Z,15.13
2018-03-01T02:59:06.303Z,14.30
2018-03-01T03:01:33.744Z,14.70
2018-03-01T03:04:01.176Z,15.53
2018-03-01T03:06:28.620Z,14.90
2018-03-01T03:08:56.048Z,13.00
2018-03-01T03:11:23.492Z,15.57
2018-03-01T03:13:50.926Z,13.77
2018-03-01T03:16:18.390Z,15.33
2018-03-01T03:18:45.797Z,15.33
2018-03-01T03:21:13.234Z,15.37
2018-03-01T03:23:41.434Z,13.33
2018-03-01T03:26:08.868Z,14.47
2018-03-01T03:28:36.329Z,14.60
2018-03-01T03:31:03.750Z,15.80
2018-03-01T03:33:31.191Z,13.73
2018-03-01T03:35:58.637Z,15.53
2018-03-01T03:38:26.100Z,16.27
2018-03-01T03:40:53.532Z,14.93
2018-03-01T03:43:20.964Z,15.90
2018-03-01T03:45:48.508Z,16.47
2018-03-01T03:48:15.968Z,17.10
2018-03-01T03:50:43.424Z,15.73
2018-03-01T03:53:10.847Z,16.13
2018-03-01T03:55:38.276Z,16.70
2018-03-01T03:58:05.716Z,15.33
2018-03-01T04:00:33.677Z,13.83
2018-03-01T04:03:01.116Z,15.53
2018-03-01T04:05:28.557Z,15.20
2018-03-01T04:07:56.002Z,16.33
2018-03-01T04:10:23.453Z,16.17
2018-03-01T04:12:50.878Z,14.50
2018-03-01T04:15:18.308Z,16.13
2018-03-01T04:17:45.736Z,15.40
2018-03-01T04:20:13.189Z,15.60
2018-03-01T04:22:40.615Z,16.03
2018-03-01T04:25:08.056Z,13.53
2018-03-01T04:27:35.516Z,14.67
2018-03-01T04:30:02.958Z,17.00
2018-03-01T04:32:30.383Z,14.77
2018-03-01T04:34:57.824Z,15.50
2018-03-01T04:37:25.284Z,14.30
2018-03-01T04:39:52.711Z,14.03
2018-03-01T04:42:20.144Z,11.20
2018-03-01T04:44:47.605Z,15.03
2018-03-01T04:47:15.028Z,14.43
2018-03-01T04:49:42.488Z,15.60
2018-03-01T04:52:09.916Z,16.03
2018-03-01T04:54:37.352Z,14.70
2018-03-01T04:57:04.797Z,14.27
2018-03-01T04:59:33.001Z,15.20
2018-03-01T05:02:00.443Z,15.83
2018-03-01T05:04:27.880Z,16.07
2018-03-01T05:06:55.312Z,14.33
2018-03-01T05:09:22.748Z,15.70
2018-03-01T05:11:50.172Z,15.70
2018-03-01T05:14:17.636Z,15.10
2018-03-01T05:16:45.059Z,15.27
2018-03-01T05:19:12.488Z,16.47
2018-03-01T05:21:39.946Z,15.50
2018-03-01T05:24:07.385Z,15.47
2018-03-01T05:26:34.836Z,16.63
2018-03-01T05:29:02.272Z,14.23
2018-03-01T05:31:29.707Z,15.37
2018-03-01T05:33:57.152Z,15.53
2018-03-01T05:36:24.592Z,14.70
2018-03-01T05:38:52.052Z,13.50
2018-03-01T05:41:19.499Z,14.57
2018-03-01T05:43:46.940Z,13.00
2018-03-01T05:46:14.359Z,15.03
2018-03-01T05:48:41.813Z,15.33
2018-03-01T05:51:09.257Z,13.50
2018-03-01T05:53:36.712Z,15.23
2018-03-01T05:56:04.125Z,15.70
2018-03-01T05:58:31.577Z,15.77
2018-03-01T06:00:59.017Z,13.90
2018-03-01T06:03:26.487Z,15.37
2018-03-01T06:05:53.924Z,14.40
2018-03-01T06:08:21.371Z,16.00
2018-03-01T06:10:48.812Z,13.63
2018-03-01T06:13:16.236Z,12.73
2018-03-01T06:15:43.669Z,16.60
2018-03-01T06:18:11.097Z,15.87
2018-03-01T06:20:38.532Z,15.67
2018-03-01T06:23:05.955Z,15.93
2018-03-01T06:25:34.167Z,15.60
2018-03-01T06:28:01.600Z,15.60
2018-03-01T06:30:29.045Z,15.63
2018-03-01T06:32:56.505Z,14.47
2018-03-01T06:35:23.932Z,15.80
2018-03-01T06:37:51.380Z,12.27
2018-03-01T06:40:18.812Z,12.30
2018-03-01T06:42:46.247Z,14.53
2018-03-01T06:45:13.683Z,14.60
2018-03-01T06:47:41.128Z,15.10
2018-03-01T06:50:08.572Z,15.20
2018-03-01T06:52:36.021Z,14.77
2018-03-01T06:55:03.454Z,16.60
2018-03-01T06:57:30.888Z,15.50
2018-03-01T06:59:58.321Z,15.37
2018-03-01T07:02:25.764Z,16.03
2018-03-01T07:04:53.213Z,15.37
2018-03-01T07:07:20.662Z,16.43
2018-03-01T07:09:48.093Z,15.00
2018-03-01T07:12:15.531Z,15.87
2018-03-01T07:14:42.969Z,15.27
2018-03-01T07:17:10.385Z,14.67
2018-03-01T07:19:38.607Z,15.33
2018-03-01T07:22:06.020Z,16.37
2018-03-01T07:24:33.464Z,16.40
2018-03-01T07:27:00.896Z,14.60
2018-03-01T07:29:28.332Z,14.37
2018-03-01T07:31:55.769Z,16.00
2018-03-01T07:34:23.196Z,13.63
2018-03-01T07:36:51.416Z,15.47
2018-03-01T07:39:18.848Z,14.97
2018-03-01T07:41:46.285Z,16.60
2018-03-01T07:44:13.708Z,16.17
2018-03-01T07:46:41.148Z,16.20
2018-03-01T07:49:08.568Z,16.50
2018-03-01T07:51:36.021Z,13.80
2018-03-01T07:54:03.444Z,13.90
2018-03-01T07:56:31.652Z,15.10
2018-03-01T07:58:59.100Z,15.53
2018-03-01T08:01:26.544Z,16.73
2018-03-01T08:03:53.975Z,15.33
2018-03-01T08:06:21.402Z,16.07
2018-03-01T08:08:48.868Z,16.10
2018-03-01T08:11:16.326Z,15.97
2018-03-01T08:13:43.748Z,13.00
2018-03-01T08:16:11.172Z,15.83
2018-03-01T08:18:38.620Z,12.73
2018-03-01T08:21:06.049Z,11.97
2018-03-01T08:23:33.485Z,15.20
2018-03-01T08:26:00.918Z,17.00
2018-03-01T08:28:28.335Z,16.17
2018-03-01T08:30:56.543Z,16.50
2018-03-01T08:33:23.974Z,13.33
2018-03-01T08:35:51.421Z,14.53
2018-03-01T08:38:18.831Z,16.10
2018-03-01T08:40:47.041Z,17.17
2018-03-01T08:43:14.472Z,17.20
2018-03-01T08:45:41.900Z,14.87
2018-03-01T08:48:09.344Z,16.90
2018-03-01T08:50:36.775Z,16.90
2018-03-01T08:53:04.219Z,15.77
2018-03-01T08:55:31.665Z,16.17
2018-03-01T08:57:59.100Z,16.20
2018-03-01T09:00:26.524Z,16.77
2018-03-01T09:02:53.974Z,16.37
2018-03-01T09:05:21.408Z,15.67
2018-03-01T09:07:49.612Z,15.63
2018-03-01T09:10:17.048Z,16.10
2018-03-01T09:12:44.475Z,16.60
2018-03-01T09:15:11.914Z,16.10
2018-03-01T09:17:39.348Z,15.77
2018-03-01T09:20:06.784Z,16.37
2018-03-01T09:22:34.216Z,15.63
2018-03-01T09:25:02.409Z,15.77
2018-03-01T09:27:29.844Z,15.90
2018-03-01T09:29:57.280Z,16.93
2018-03-01T09:32:24.708Z,15.57
2018-03-01T09:34:52.148Z,15.87
2018-03-01T09:37:19.576Z,14.80
2018-03-01T09:39:47.768Z,16.20
2018-03-01T09:42:15.212Z,15.90
2018-03-01T09:44:42.692Z,16.97
2018-03-01T09:47:10.064Z,15.97
2018-03-01T09:49:37.508Z,15.40
2018-03-01T09:52:04.956Z,18.43
2018-03-01T09:54:32.400Z,15.83
2018-03-01T09:56:59.840Z,16.47
2018-03-01T09:59:27.264Z,19.27
2018-03-01T10:01:55.452Z,16.40
2018-03-01T10:04:22.931Z,16.80
2018-03-01T10:06:50.361Z,17.50
2018-03-01T10:09:17.784Z,16.50
2018-03-01T10:11:45.212Z,16.20
2018-03-01T10:14:12.668Z,16.73
2018-03-01T10:16:40.085Z,16.73
2018-03-01T10:19:07.532Z,16.87
2018-03-01T10:21:34.972Z,13.47
2018-03-01T10:24:02.411Z,16.20
2018-03-01T10:26:29.832Z,15.67
2018-03-01T10:28:58.021Z,16.60
2018-03-01T10:31:25.456Z,16.10
2018-03-01T10:33:52.900Z,14.97
2018-03-01T10:36:20.324Z,15.77
2018-03-01T10:38:48.537Z,16.60
2018-03-01T10:41:15.976Z,15.93
2018-03-01T10:43:43.407Z,16.00
2018-03-01T10:46:10.849Z,17.23
2018-03-01T10:48:38.289Z,16.77
2018-03-01T10:51:05.724Z,17.63
2018-03-01T10:53:33.195Z,16.97
2018-03-01T10:56:00.637Z,12.20
2018-03-01T10:58:28.076Z,17.27
2018-03-01T11:00:59.457Z,17.23
2018-03-01T11:03:26.888Z,17.70
2018-03-01T11:05:54.332Z,17.40
2018-03-01T11:08:22.526Z,17.07
2018-03-01T11:10:49.953Z,17.90
2018-03-01T11:13:17.392Z,15.10
2018-03-01T11:15:44.867Z,16.47
2018-03-01T11:18:12.309Z,15.40
2018-03-01T11:20:39.773Z,14.97
2018-03-01T11:23:07.197Z,17.57
2018-03-01T11:25:34.644Z,17.03
2018-03-01T11:28:02.076Z,16.23
2018-03-01T11:30:29.522Z,17.07
2018-03-01T11:32:56.956Z,15.23
2018-03-01T11:35:24.389Z,15.77
2018-03-01T11:37:51.828Z,16.03
2018-03-01T11:40:19.260Z,18.13
2018-03-01T11:42:46.716Z,17.53
2018-03-01T11:45:14.157Z,18.03
2018-03-01T11:47:41.593Z,18.40
2018-03-01T11:50:09.016Z,18.17
2018-03-01T11:52:36.440Z,18.80
2018-03-01T11:55:04.654Z,17.33
2018-03-01T11:57:32.076Z,17.07
2018-03-01T11:59:59.492Z,16.93
2018-03-01T12:02:26.920Z,17.23
2018-03-01T12:04:55.112Z,18.53
2018-03-01T12:07:22.536Z,18.07
2018-03-01T12:09:49.956Z,17.70
2018-03-01T12:12:18.165Z,17.77
2018-03-01T12:14:45.584Z,18.17
2018-03-01T12:17:13.024Z,17.40
2018-03-01T12:19:40.450Z,17.33
2018-03-01T12:22:08.652Z,17.50
2018-03-01T12:24:36.077Z,17.40
2018-03-01T12:27:03.511Z,16.30
2018-03-01T12:29:30.944Z,17.33
2018-03-01T12:31:58.378Z,17.17
2018-03-01T12:34:26.559Z,16.77
2018-03-01T12:36:53.994Z,17.07
2018-03-01T12:39:21.400Z,17.53
2018-03-01T12:41:49.595Z,18.17
2018-03-01T12:44:17.029Z,17.63
2018-03-01T12:46:44.448Z,16.83
2018-03-01T12:49:12.657Z,17.50
2018-03-01T12:51:40.094Z,17.47
2018-03-01T12:54:07.520Z,17.67
2018-03-01T12:56:34.940Z,16.23
2018-03-01T12:59:02.374Z,17.30
2018-03-01T13:01:29.783Z,16.33
2018-03-01T13:03:57.228Z,17.07
2018-03-01T13:06:24.664Z,17.63
2018-03-01T13:08:52.085Z,15.63
2018-03-01T13:11:19.536Z,16.73
2018-03-01T13:13:46.961Z,16.67
2018-03-01T13:16:14.414Z,16.97
2018-03-01T13:18:41.841Z,17.30
2018-03-01T13:21:09.268Z,17.83
2018-03-01T13:23:36.692Z,16.87
2018-03-01T13:26:04.890Z,16.90
2018-03-01T13:28:32.309Z,17.33
2018-03-01T13:31:01.336Z,17.43
2018-03-01T13:33:32.420Z,16.70
2018-03-01T13:36:00.637Z,17.03
2018-03-01T13:38:28.065Z,17.67
2018-03-01T13:40:55.493Z,17.10
2018-03-01T13:43:23.353Z,16.77
2018-03-01T13:45:52.001Z,17.13
2018-03-01T13:48:19.437Z,17.30
2018-03-01T13:50:46.859Z,16.53
2018-03-01T13:53:14.292Z,16.33
2018-03-01T13:55:41.716Z,17.43
2018-03-01T13:58:09.916Z,16.90
2018-03-01T14:00:37.341Z,16.97
2018-03-01T14:03:04.771Z,16.63
2018-03-01T14:05:32.969Z,17.13
2018-03-01T14:08:00.388Z,16.83
2018-03-01T14:10:27.816Z,16.13
2018-03-01T14:16:05.228Z,17.37
2018-03-01T14:18:38.713Z,15.03
2018-03-01T14:24:18.221Z,17.57
2018-03-01T14:27:00.530Z,17.10
2018-03-01T14:29:31.373Z,16.07
2018-03-01T14:31:58.812Z,16.57
2018-03-01T14:34:26.229Z,17.07
2018-03-01T14:36:53.659Z,15.60
2018-03-01T14:39:21.080Z,17.10
2018-03-01T14:41:48.512Z,17.60
2018-03-01T14:44:16.713Z,16.80
2018-03-01T14:46:44.131Z,17.30
2018-03-01T14:49:11.561Z,16.67
2018-03-01T14:51:38.991Z,17.37
2018-03-01T14:54:07.196Z,17.87
2018-03-01T14:56:34.621Z,18.73
2018-03-01T14:59:02.050Z,17.90
2018-03-01T15:01:29.465Z,17.63
2018-03-01T15:03:57.686Z,18.33
2018-03-01T15:06:25.110Z,17.53
2018-03-01T15:08:52.557Z,19.07
2018-03-01T15:11:19.981Z,18.47
2018-03-01T15:13:47.400Z,17.30
2018-03-01T15:16:15.596Z,18.30
2018-03-01T15:18:43.020Z,19.40
2018-03-01T15:21:10.456Z,19.20
2018-03-01T15:23:37.880Z,17.77
2018-03-01T15:26:06.090Z,19.10
2018-03-01T15:28:33.507Z,19.83
2018-03-01T15:31:00.936Z,18.60
2018-03-01T15:33:28.364Z,18.57
2018-03-01T15:35:56.584Z,18.17
2018-03-01T15:38:24.012Z,19.07
2018-03-01T15:40:51.457Z,18.17
2018-03-01T15:43:18.876Z,16.73
2018-03-01T15:45:46.304Z,19.07
2018-03-01T15:48:13.749Z,19.30
2018-03-01T15:50:41.199Z,17.47
2018-03-01T15:53:08.616Z,17.90
2018-03-01T15:55:36.824Z,18.13
2018-03-01T15:58:04.258Z,18.50
2018-03-01T16:00:31.694Z,17.73
2018-03-01T16:02:59.124Z,18.50
2018-03-01T16:05:26.557Z,18.47
2018-03-01T16:07:53.982Z,18.27
2018-03-01T16:10:22.181Z,18.00
2018-03-01T16:12:49.660Z,18.00
2018-03-01T16:15:17.108Z,17.90
2018-03-01T16:17:44.623Z,18.53
2018-03-01T16:20:12.071Z,18.10
2018-03-01T16:22:39.496Z,18.43
2018-03-01T16:25:06.920Z,18.47
2018-03-01T16:27:34.343Z,18.73
2018-03-01T16:30:01.788Z,19.37
2018-03-01T16:32:29.232Z,17.37
2018-03-01T16:34:56.669Z,18.57
2018-03-01T16:37:24.100Z,18.80
2018-03-01T16:39:52.306Z,19.07
2018-03-01T16:42:19.749Z,18.83
2018-03-01T16:44:47.182Z,18.83
2018-03-01T16:47:14.628Z,17.77
2018-03-01T16:49:42.061Z,15.90
2018-03-01T16:52:09.494Z,20.50
2018-03-01T16:54:36.926Z,20.87
2018-03-01T16:57:04.360Z,17.57
2018-03-01T16:59:31.808Z,17.93
2018-03-01T17:01:59.239Z,17.70
2018-03-01T17:04:26.675Z,17.83
2018-03-01T17:06:54.880Z,17.33
2018-03-01T17:09:22.307Z,17.57
2018-03-01T17:11:49.768Z,18.87
2018-03-01T17:14:17.194Z,18.53
2018-03-01T17:16:44.644Z,18.20
2018-03-01T17:19:12.092Z,19.00
2018-03-01T17:21:39.544Z,17.70
2018-03-01T17:24:06.973Z,16.03
2018-03-01T17:26:34.413Z,17.03
2018-03-01T17:29:01.857Z,16.93
2018-03-01T17:31:29.297Z,18.87
2018-03-01T17:33:56.736Z,17.33
2018-03-01T17:36:24.181Z,17.57
2018-03-01T17:38:51.624Z,16.93
2018-03-01T17:41:19.064Z,16.77
2018-03-01T17:43:46.501Z,17.77
2018-03-01T17:46:13.957Z,17.47
2018-03-01T17:48:41.384Z,18.70
2018-03-01T17:51:08.825Z,18.30
2018-03-01T17:53:36.248Z,17.03
2018-03-01T17:56:03.679Z,17.10
2018-03-01T17:58:31.113Z,17.40
2018-03-01T18:00:58.547Z,18.43
2018-03-01T18:03:26.005Z,18.70
2018-03-01T18:05:53.431Z,18.73
2018-03-01T18:08:21.631Z,18.67
2018-03-01T18:10:49.084Z,18.93
2018-03-01T18:13:16.528Z,17.50
2018-03-01T18:15:43.978Z,18.23
2018-03-01T18:18:11.413Z,18.23
2018-03-01T18:20:38.841Z,18.00
2018-03-01T18:23:06.286Z,18.13
2018-03-01T18:25:33.722Z,19.13
2018-03-01T18:28:01.185Z,18.57
2018-03-01T18:30:28.625Z,18.43
2018-03-01T18:32:56.052Z,19.23
2018-03-01T18:35:23.489Z,18.23
2018-03-01T18:37:50.928Z,18.87
2018-03-01T18:40:18.384Z,19.53
2018-03-01T18:42:45.821Z,18.90
2018-03-01T18:45:13.276Z,20.97
2018-03-01T18:47:40.741Z,19.50
2018-03-01T18:50:08.128Z,20.30
2018-03-01T18:52:35.560Z,20.27
2018-03-01T18:55:03.027Z,18.73
2018-03-01T18:57:30.441Z,19.50
2018-03-01T18:59:57.888Z,18.80
2018-03-01T19:02:25.328Z,18.10
2018-03-01T19:04:52.762Z,18.47
2018-03-01T19:07:20.225Z,18.03
2018-03-01T19:09:48.296Z,19.30
2018-03-01T19:12:15.751Z,18.57
2018-03-01T19:14:43.211Z,19.27
2018-03-01T19:17:10.680Z,19.47
2018-03-01T19:19:38.117Z,20.57
2018-03-01T19:22:05.553Z,17.83
2018-03-01T19:24:33.764Z,18.97
2018-03-01T19:27:01.217Z,19.47
2018-03-01T19:29:28.656Z,19.90
2018-03-01T19:31:56.077Z,18.00
2018-03-01T19:34:23.519Z,18.53
2018-03-01T19:36:50.960Z,18.97
2018-03-01T19:39:18.388Z,17.83
2018-03-01T19:41:45.820Z,17.13
2018-03-01T19:44:14.217Z,19.23
2018-03-01T19:46:41.663Z,19.97
2018-03-01T19:49:09.090Z,19.27
2018-03-01T19:51:36.543Z,17.77
2018-03-01T19:54:03.977Z,19.27
2018-03-01T19:56:31.436Z,19.10
2018-03-01T19:58:58.893Z,19.33
2018-03-01T20:01:26.356Z,18.23
2018-03-01T20:03:54.549Z,19.27
2018-03-01T20:06:21.980Z,17.43
2018-03-01T20:08:49.413Z,20.10
2018-03-01T20:11:16.870Z,19.20
2018-03-01T20:13:44.305Z,18.40
2018-03-01T20:16:11.719Z,19.87
2018-03-01T20:18:39.936Z,19.70
2018-03-01T20:21:07.383Z,20.10
2018-03-01T20:23:34.828Z,19.97
2018-03-01T20:26:02.257Z,18.77
2018-03-01T20:28:29.696Z,18.83
2018-03-01T20:30:57.128Z,18.87
2018-03-01T20:33:24.560Z,21.17
2018-03-01T20:35:52.027Z,18.53
2018-03-01T20:38:19.472Z,21.10
2018-03-01T20:40:46.912Z,19.83
2018-03-01T20:43:14.364Z,20.10
2018-03-01T20:45:41.819Z,18.33
2018-03-01T20:48:09.285Z,17.80
2018-03-01T20:50:37.504Z,20.13
2018-03-01T20:53:04.965Z,20.30
2018-03-01T20:55:33.927Z,19.37
2018-03-01T20:58:01.364Z,20.43
2018-03-01T21:00:28.827Z,19.93
2018-03-01T21:02:56.295Z,21.13
2018-03-01T21:05:24.492Z,20.67
2018-03-01T21:07:51.947Z,20.27
2018-03-01T21:10:19.412Z,20.73
2018-03-01T21:12:46.839Z,19.50
2018-03-01T21:15:15.074Z,19.20
2018-03-01T21:17:42.505Z,19.93
2018-03-01T21:20:09.969Z,19.77
2018-03-01T21:22:37.428Z,19.83
2018-03-01T21:25:04.876Z,19.80
2018-03-01T21:27:32.328Z,19.47
2018-03-01T21:30:00.369Z,19.90
2018-03-01T21:32:27.827Z,21.23
2018-03-01T21:34:55.257Z,20.10
2018-03-01T21:37:22.698Z,20.30
2018-03-01T21:39:50.948Z,20.53
2018-03-01T21:42:18.595Z,20.63
2018-03-01T21:44:46.097Z,21.10
2018-03-01T21:47:13.506Z,21.13
2018-03-01T21:49:41.740Z,20.47
2018-03-01T21:52:09.176Z,21.27
2018-03-01T21:54:36.627Z,22.43
2018-03-01T21:57:04.065Z,21.73
2018-03-01T21:59:31.524Z,21.27
2018-03-01T22:01:58.952Z,22.43
2018-03-01T22:04:26.391Z,21.87
2018-03-01T22:06:53.832Z,20.30
2018-03-01T22:09:21.272Z,21.57
2018-03-01T22:11:48.723Z,21.33
2018-03-01T22:14:16.160Z,21.13
2018-03-01T22:16:43.597Z,21.77
2018-03-01T22:19:11.037Z,22.37
2018-03-01T22:21:38.475Z,21.00
2018-03-01T22:24:05.929Z,21.73
2018-03-01T22:26:33.375Z,21.57
2018-03-01T22:29:00.821Z,22.37
2018-03-01T22:31:28.245Z,21.70
2018-03-01T22:33:55.700Z,23.40
2018-03-01T22:36:23.150Z,22.33
2018-03-01T22:38:50.588Z,22.07
2018-03-01T22:41:18.039Z,21.33
2018-03-01T22:43:45.483Z,21.90
2018-03-01T22:46:12.905Z,20.70
2018-03-01T22:48:40.340Z,22.13
2018-03-01T22:51:07.792Z,22.50
2018-03-01T22:53:35.325Z,21.03
2018-03-01T22:56:02.775Z,21.73
2018-03-01T22:58:30.199Z,22.67
2018-03-01T23:00:57.648Z,21.90
2018-03-01T23:03:25.084Z,23.53
2018-03-01T23:05:52.544Z,22.50
2018-03-01T23:08:20.080Z,22.37
2018-03-01T23:10:47.524Z,21.93
2018-03-01T23:13:14.971Z,21.00
2018-03-01T23:15:42.432Z,22.83
2018-03-01T23:18:10.657Z,24.37
2018-03-01T23:20:38.097Z,23.10
2018-03-01T23:23:05.529Z,22.67
2018-03-01T23:25:32.956Z,23.50
2018-03-01T23:28:00.389Z,22.77
2018-03-01T23:30:27.832Z,23.47
2018-03-01T23:32:55.289Z,24.23
2018-03-01T23:35:22.742Z,22.77
2018-03-01T23:37:50.164Z,24.17
2018-03-01T23:40:17.600Z,24.60
2018-03-01T23:42:45.029Z,23.50
2018-03-01T23:45:12.470Z,22.77
2018-03-01T23:47:39.916Z,23.83
2018-03-01T23:50:07.359Z,23.30
2018-03-01T23:52:34.788Z,24.37
2018-03-01T23:55:03.000Z,24.73
2018-03-01T23:57:30.445Z,23.37
2018-03-01T23:59:57.882Z,24.70
